sensor_id;sensor_type;location;lat;lon;timestamp;P1;durP1;ratioP1;P2;durP2;ratioP2
2866;SDS011;1441;48.886;8.728;2022-09-21T00:01:03;9.27;;;2.57;;
2866;SDS011;1441;48.886;8.728;2022-09-21T00:03:33;4.80;;;2.60;;
2866;SDS011;1441;48.886;8.728;2022-09-21T00:06:01;5.10;;;3.43;;
2866;SDS011;1441;48.886;8.728;2022-09-21T00:08:31;3.67;;;2.57;;
2866;SDS011;1441;48.886;8.728;2022-09-21T00:10:57;3.03;;;2.37;;
2866;SDS011;1441;48.886;8.728;2022-09-21T00:13:24;7.43;;;2.97;;
2866;SDS011;1441;48.886;8.728;2022-09-21T00:15:50;4.30;;;2.40;;
2866;SDS011;1441;48.886;8.728;2022-09-21T00:18:16;5.27;;;2.80;;
2866;SDS011;1441;48.886;8.728;2022-09-21T00:20:42;5.57;;;2.67;;
2866;SDS011;1441;48.886;8.728;2022-09-21T00:23:08;4.30;;;2.87;;
2866;SDS011;1441;48.886;8.728;2022-09-21T00:25:34;2.73;;;2.40;;
2866;SDS011;1441;48.886;8.728;2022-09-21T00:28:00;2.20;;;1.97;;
2866;SDS011;1441;48.886;8.728;2022-09-21T00:30:25;3.57;;;2.10;;
2866;SDS011;1441;48.886;8.728;2022-09-21T00:32:52;3.47;;;2.60;;
2866;SDS011;1441;48.886;8.728;2022-09-21T00:35:17;3.40;;;2.30;;
2866;SDS011;1441;48.886;8.728;2022-09-21T00:37:43;6.00;;;2.40;;
2866;SDS011;1441;48.886;8.728;2022-09-21T00:40:09;4.53;;;2.67;;
2866;SDS011;1441;48.886;8.728;2022-09-21T00:42:35;7.20;;;3.00;;
2866;SDS011;1441;48.886;8.728;2022-09-21T00:45:01;2.77;;;2.50;;
2866;SDS011;1441;48.886;8.728;2022-09-21T00:47:34;2.80;;;2.30;;
2866;SDS011;1441;48.886;8.728;2022-09-21T00:50:08;4.77;;;2.20;;
2866;SDS011;1441;48.886;8.728;2022-09-21T00:52:38;3.33;;;2.00;;
2866;SDS011;1441;48.886;8.728;2022-09-21T00:55:17;3.83;;;2.43;;
2866;SDS011;1441;48.886;8.728;2022-09-21T00:57:47;5.83;;;2.67;;
2866;SDS011;1441;48.886;8.728;2022-09-21T01:00:17;3.70;;;3.00;;
2866;SDS011;1441;48.886;8.728;2022-09-21T01:02:43;3.17;;;2.87;;
2866;SDS011;1441;48.886;8.728;2022-09-21T01:05:10;4.50;;;2.33;;
2866;SDS011;1441;48.886;8.728;2022-09-21T01:07:36;2.63;;;2.30;;
2866;SDS011;1441;48.886;8.728;2022-09-21T01:10:09;5.13;;;2.60;;
2866;SDS011;1441;48.886;8.728;2022-09-21T01:18:31;4.13;;;2.80;;
2866;SDS011;1441;48.886;8.728;2022-09-21T01:21:07;3.50;;;3.27;;
2866;SDS011;1441;48.886;8.728;2022-09-21T01:23:49;4.10;;;2.50;;
2866;SDS011;1441;48.886;8.728;2022-09-21T01:26:50;6.40;;;2.70;;
2866;SDS011;1441;48.886;8.728;2022-09-21T01:29:21;3.30;;;2.50;;
2866;SDS011;1441;48.886;8.728;2022-09-21T01:32:13;3.13;;;2.37;;
2866;SDS011;1441;48.886;8.728;2022-09-21T01:34:50;4.67;;;2.40;;
2866;SDS011;1441;48.886;8.728;2022-09-21T01:37:23;4.03;;;2.00;;
2866;SDS011;1441;48.886;8.728;2022-09-21T01:39:58;4.80;;;2.03;;
2866;SDS011;1441;48.886;8.728;2022-09-21T01:42:27;5.80;;;2.47;;
2866;SDS011;1441;48.886;8.728;2022-09-21T01:44:56;2.87;;;2.20;;
2866;SDS011;1441;48.886;8.728;2022-09-21T01:47:24;5.80;;;3.30;;
2866;SDS011;1441;48.886;8.728;2022-09-21T01:49:51;5.57;;;2.60;;
2866;SDS011;1441;48.886;8.728;2022-09-21T01:52:28;5.23;;;3.33;;
2866;SDS011;1441;48.886;8.728;2022-09-21T01:55:02;5.07;;;3.43;;
2866;SDS011;1441;48.886;8.728;2022-09-21T01:57:37;7.00;;;3.80;;
2866;SDS011;1441;48.886;8.728;2022-09-21T02:00:11;6.20;;;3.80;;
2866;SDS011;1441;48.886;8.728;2022-09-21T02:02:41;12.67;;;3.70;;
2866;SDS011;1441;48.886;8.728;2022-09-21T02:05:24;6.47;;;2.77;;
2866;SDS011;1441;48.886;8.728;2022-09-21T02:07:52;13.47;;;3.07;;
2866;SDS011;1441;48.886;8.728;2022-09-21T02:10:19;3.33;;;2.37;;
2866;SDS011;1441;48.886;8.728;2022-09-21T02:12:56;5.17;;;2.70;;
2866;SDS011;1441;48.886;8.728;2022-09-21T02:15:25;3.90;;;2.40;;
2866;SDS011;1441;48.886;8.728;2022-09-21T02:20:57;3.77;;;2.33;;
2866;SDS011;1441;48.886;8.728;2022-09-21T02:23:27;2.17;;;2.07;;
2866;SDS011;1441;48.886;8.728;2022-09-21T02:26:06;2.40;;;2.20;;
2866;SDS011;1441;48.886;8.728;2022-09-21T02:28:38;3.17;;;2.43;;
2866;SDS011;1441;48.886;8.728;2022-09-21T02:34:05;3.63;;;2.20;;
2866;SDS011;1441;48.886;8.728;2022-09-21T02:36:56;4.23;;;2.43;;
2866;SDS011;1441;48.886;8.728;2022-09-21T02:39:38;2.73;;;2.03;;
2866;SDS011;1441;48.886;8.728;2022-09-21T02:42:11;2.27;;;1.87;;
2866;SDS011;1441;48.886;8.728;2022-09-21T02:44:51;2.60;;;2.43;;
2866;SDS011;1441;48.886;8.728;2022-09-21T02:47:41;2.30;;;2.10;;
2866;SDS011;1441;48.886;8.728;2022-09-21T02:53:07;12.30;;;2.80;;
2866;SDS011;1441;48.886;8.728;2022-09-21T02:55:37;3.93;;;2.37;;
2866;SDS011;1441;48.886;8.728;2022-09-21T02:58:04;4.77;;;2.17;;
2866;SDS011;1441;48.886;8.728;2022-09-21T03:00:34;3.10;;;2.70;;
2866;SDS011;1441;48.886;8.728;2022-09-21T03:03:03;8.33;;;2.70;;
2866;SDS011;1441;48.886;8.728;2022-09-21T03:05:41;4.90;;;2.37;;
2866;SDS011;1441;48.886;8.728;2022-09-21T03:08:12;8.93;;;3.13;;
2866;SDS011;1441;48.886;8.728;2022-09-21T03:10:38;12.80;;;3.70;;
2866;SDS011;1441;48.886;8.728;2022-09-21T03:13:04;2.77;;;2.47;;
2866;SDS011;1441;48.886;8.728;2022-09-21T03:15:33;3.00;;;2.70;;
2866;SDS011;1441;48.886;8.728;2022-09-21T03:17:59;3.00;;;2.27;;
2866;SDS011;1441;48.886;8.728;2022-09-21T03:20:25;3.37;;;2.20;;
2866;SDS011;1441;48.886;8.728;2022-09-21T03:22:51;2.63;;;2.43;;
2866;SDS011;1441;48.886;8.728;2022-09-21T03:25:16;2.07;;;1.97;;
2866;SDS011;1441;48.886;8.728;2022-09-21T03:27:42;4.27;;;2.10;;
2866;SDS011;1441;48.886;8.728;2022-09-21T03:30:09;3.60;;;2.63;;
2866;SDS011;1441;48.886;8.728;2022-09-21T03:32:35;4.13;;;3.00;;
2866;SDS011;1441;48.886;8.728;2022-09-21T03:35:00;4.90;;;2.30;;
2866;SDS011;1441;48.886;8.728;2022-09-21T03:37:26;3.70;;;2.40;;
2866;SDS011;1441;48.886;8.728;2022-09-21T03:39:51;5.20;;;2.27;;
2866;SDS011;1441;48.886;8.728;2022-09-21T03:42:17;8.00;;;2.73;;
2866;SDS011;1441;48.886;8.728;2022-09-21T03:44:42;9.33;;;3.20;;
2866;SDS011;1441;48.886;8.728;2022-09-21T03:47:08;4.80;;;2.60;;
2866;SDS011;1441;48.886;8.728;2022-09-21T03:49:33;3.70;;;2.40;;
2866;SDS011;1441;48.886;8.728;2022-09-21T03:51:59;7.20;;;1.83;;
2866;SDS011;1441;48.886;8.728;2022-09-21T03:54:25;2.10;;;2.00;;
2866;SDS011;1441;48.886;8.728;2022-09-21T03:56:50;6.30;;;2.33;;
2866;SDS011;1441;48.886;8.728;2022-09-21T03:59:16;4.87;;;2.50;;
2866;SDS011;1441;48.886;8.728;2022-09-21T04:01:42;3.90;;;1.90;;
2866;SDS011;1441;48.886;8.728;2022-09-21T04:04:07;3.70;;;2.03;;
2866;SDS011;1441;48.886;8.728;2022-09-21T04:06:35;3.07;;;2.30;;
2866;SDS011;1441;48.886;8.728;2022-09-21T04:09:00;9.63;;;2.10;;
2866;SDS011;1441;48.886;8.728;2022-09-21T04:11:27;5.20;;;2.00;;
2866;SDS011;1441;48.886;8.728;2022-09-21T04:13:53;2.70;;;2.07;;
2866;SDS011;1441;48.886;8.728;2022-09-21T04:16:21;2.20;;;2.00;;
2866;SDS011;1441;48.886;8.728;2022-09-21T04:18:47;3.77;;;2.27;;
2866;SDS011;1441;48.886;8.728;2022-09-21T04:21:14;4.30;;;2.60;;
2866;SDS011;1441;48.886;8.728;2022-09-21T04:23:41;12.40;;;2.40;;
2866;SDS011;1441;48.886;8.728;2022-09-21T04:26:17;3.43;;;2.23;;
2866;SDS011;1441;48.886;8.728;2022-09-21T04:28:50;5.27;;;2.70;;
2866;SDS011;1441;48.886;8.728;2022-09-21T04:31:16;4.33;;;3.00;;
2866;SDS011;1441;48.886;8.728;2022-09-21T04:33:42;4.20;;;2.67;;
2866;SDS011;1441;48.886;8.728;2022-09-21T04:36:08;3.27;;;2.50;;
2866;SDS011;1441;48.886;8.728;2022-09-21T04:38:33;4.77;;;2.73;;
2866;SDS011;1441;48.886;8.728;2022-09-21T04:40:59;4.07;;;2.80;;
2866;SDS011;1441;48.886;8.728;2022-09-21T04:43:25;2.77;;;2.57;;
2866;SDS011;1441;48.886;8.728;2022-09-21T04:45:51;4.03;;;2.70;;
2866;SDS011;1441;48.886;8.728;2022-09-21T04:48:16;3.77;;;2.97;;
2866;SDS011;1441;48.886;8.728;2022-09-21T04:50:42;6.80;;;4.37;;
2866;SDS011;1441;48.886;8.728;2022-09-21T04:53:08;7.13;;;3.57;;
2866;SDS011;1441;48.886;8.728;2022-09-21T04:55:34;4.37;;;3.57;;
2866;SDS011;1441;48.886;8.728;2022-09-21T04:57:59;6.23;;;4.10;;
2866;SDS011;1441;48.886;8.728;2022-09-21T05:00:25;3.67;;;3.37;;
2866;SDS011;1441;48.886;8.728;2022-09-21T05:02:51;5.30;;;3.90;;
2866;SDS011;1441;48.886;8.728;2022-09-21T05:05:16;4.63;;;3.30;;
2866;SDS011;1441;48.886;8.728;2022-09-21T05:07:42;4.50;;;3.70;;
2866;SDS011;1441;48.886;8.728;2022-09-21T05:10:07;3.73;;;3.50;;
2866;SDS011;1441;48.886;8.728;2022-09-21T05:12:35;5.47;;;3.50;;
2866;SDS011;1441;48.886;8.728;2022-09-21T05:15:00;4.90;;;3.33;;
2866;SDS011;1441;48.886;8.728;2022-09-21T05:17:26;5.53;;;3.97;;
2866;SDS011;1441;48.886;8.728;2022-09-21T05:19:52;4.00;;;3.60;;
2866;SDS011;1441;48.886;8.728;2022-09-21T05:22:18;4.97;;;4.00;;
2866;SDS011;1441;48.886;8.728;2022-09-21T05:24:45;4.37;;;3.87;;
2866;SDS011;1441;48.886;8.728;2022-09-21T05:27:10;4.80;;;4.13;;
2866;SDS011;1441;48.886;8.728;2022-09-21T05:29:37;4.60;;;3.60;;
2866;SDS011;1441;48.886;8.728;2022-09-21T05:40:28;5.57;;;4.20;;
2866;SDS011;1441;48.886;8.728;2022-09-21T05:42:54;3.80;;;3.10;;
2866;SDS011;1441;48.886;8.728;2022-09-21T05:45:20;8.07;;;3.57;;
2866;SDS011;1441;48.886;8.728;2022-09-21T05:47:52;6.10;;;4.00;;
2866;SDS011;1441;48.886;8.728;2022-09-21T05:53:10;4.33;;;3.50;;
2866;SDS011;1441;48.886;8.728;2022-09-21T06:01:01;6.43;;;3.73;;
2866;SDS011;1441;48.886;8.728;2022-09-21T06:03:29;4.47;;;3.87;;
2866;SDS011;1441;48.886;8.728;2022-09-21T06:05:56;6.17;;;3.83;;
2866;SDS011;1441;48.886;8.728;2022-09-21T06:08:22;5.00;;;4.13;;
2866;SDS011;1441;48.886;8.728;2022-09-21T06:10:48;6.10;;;4.20;;
2866;SDS011;1441;48.886;8.728;2022-09-21T06:13:14;10.93;;;4.67;;
2866;SDS011;1441;48.886;8.728;2022-09-21T06:15:40;9.93;;;5.30;;
2866;SDS011;1441;48.886;8.728;2022-09-21T06:18:06;5.80;;;4.33;;
2866;SDS011;1441;48.886;8.728;2022-09-21T06:20:32;7.60;;;4.40;;
2866;SDS011;1441;48.886;8.728;2022-09-21T06:22:59;6.97;;;4.30;;
2866;SDS011;1441;48.886;8.728;2022-09-21T06:25:35;5.03;;;4.53;;
2866;SDS011;1441;48.886;8.728;2022-09-21T06:28:04;7.27;;;4.83;;
2866;SDS011;1441;48.886;8.728;2022-09-21T06:30:32;7.70;;;5.47;;
2866;SDS011;1441;48.886;8.728;2022-09-21T06:33:02;10.30;;;4.50;;
2866;SDS011;1441;48.886;8.728;2022-09-21T06:35:29;4.13;;;3.27;;
2866;SDS011;1441;48.886;8.728;2022-09-21T06:38:00;3.90;;;2.90;;
2866;SDS011;1441;48.886;8.728;2022-09-21T06:40:27;5.00;;;3.30;;
2866;SDS011;1441;48.886;8.728;2022-09-21T06:42:57;4.87;;;2.67;;
2866;SDS011;1441;48.886;8.728;2022-09-21T06:45:27;5.37;;;2.43;;
2866;SDS011;1441;48.886;8.728;2022-09-21T06:47:54;2.93;;;2.70;;
2866;SDS011;1441;48.886;8.728;2022-09-21T06:50:19;3.57;;;2.47;;
2866;SDS011;1441;48.886;8.728;2022-09-21T06:52:45;2.47;;;2.27;;
2866;SDS011;1441;48.886;8.728;2022-09-21T06:55:11;3.97;;;3.00;;
2866;SDS011;1441;48.886;8.728;2022-09-21T06:57:37;3.47;;;3.17;;
2866;SDS011;1441;48.886;8.728;2022-09-21T07:00:04;5.20;;;3.30;;
2866;SDS011;1441;48.886;8.728;2022-09-21T07:02:32;3.07;;;2.60;;
2866;SDS011;1441;48.886;8.728;2022-09-21T07:04:58;3.83;;;2.87;;
2866;SDS011;1441;48.886;8.728;2022-09-21T07:07:24;7.60;;;3.33;;
2866;SDS011;1441;48.886;8.728;2022-09-21T07:09:50;3.53;;;2.90;;
2866;SDS011;1441;48.886;8.728;2022-09-21T07:12:16;8.30;;;3.27;;
2866;SDS011;1441;48.886;8.728;2022-09-21T07:14:42;3.50;;;3.00;;
2866;SDS011;1441;48.886;8.728;2022-09-21T07:17:10;8.90;;;3.33;;
2866;SDS011;1441;48.886;8.728;2022-09-21T07:19:37;4.40;;;2.70;;
2866;SDS011;1441;48.886;8.728;2022-09-21T07:22:03;6.60;;;3.33;;
2866;SDS011;1441;48.886;8.728;2022-09-21T07:24:29;3.97;;;3.00;;
2866;SDS011;1441;48.886;8.728;2022-09-21T07:26:54;4.77;;;2.80;;
2866;SDS011;1441;48.886;8.728;2022-09-21T07:29:20;6.10;;;2.97;;
2866;SDS011;1441;48.886;8.728;2022-09-21T07:31:45;7.80;;;3.00;;
2866;SDS011;1441;48.886;8.728;2022-09-21T07:34:12;3.23;;;3.00;;
2866;SDS011;1441;48.886;8.728;2022-09-21T07:36:37;3.40;;;2.50;;
2866;SDS011;1441;48.886;8.728;2022-09-21T07:39:03;7.03;;;2.90;;
2866;SDS011;1441;48.886;8.728;2022-09-21T07:41:29;2.50;;;2.30;;
2866;SDS011;1441;48.886;8.728;2022-09-21T07:43:55;4.97;;;2.90;;
2866;SDS011;1441;48.886;8.728;2022-09-21T07:46:20;4.90;;;3.37;;
2866;SDS011;1441;48.886;8.728;2022-09-21T07:48:46;5.40;;;2.90;;
2866;SDS011;1441;48.886;8.728;2022-09-21T07:51:12;6.07;;;3.63;;
2866;SDS011;1441;48.886;8.728;2022-09-21T07:53:40;3.50;;;2.60;;
2866;SDS011;1441;48.886;8.728;2022-09-21T07:56:12;6.10;;;2.87;;
2866;SDS011;1441;48.886;8.728;2022-09-21T07:58:40;2.90;;;2.70;;
2866;SDS011;1441;48.886;8.728;2022-09-21T08:01:25;4.67;;;2.90;;
2866;SDS011;1441;48.886;8.728;2022-09-21T08:03:52;2.40;;;2.20;;
2866;SDS011;1441;48.886;8.728;2022-09-21T08:06:19;3.33;;;2.90;;
2866;SDS011;1441;48.886;8.728;2022-09-21T08:08:45;5.40;;;2.47;;
2866;SDS011;1441;48.886;8.728;2022-09-21T08:11:14;7.00;;;2.90;;
2866;SDS011;1441;48.886;8.728;2022-09-21T08:13:42;2.67;;;2.40;;
2866;SDS011;1441;48.886;8.728;2022-09-21T08:16:08;7.60;;;3.07;;
2866;SDS011;1441;48.886;8.728;2022-09-21T08:18:37;4.27;;;2.30;;
2866;SDS011;1441;48.886;8.728;2022-09-21T08:21:04;8.97;;;3.70;;
2866;SDS011;1441;48.886;8.728;2022-09-21T08:23:30;4.70;;;3.20;;
2866;SDS011;1441;48.886;8.728;2022-09-21T08:26:00;8.63;;;3.27;;
2866;SDS011;1441;48.886;8.728;2022-09-21T08:28:27;4.17;;;2.77;;
2866;SDS011;1441;48.886;8.728;2022-09-21T08:30:57;5.93;;;2.30;;
2866;SDS011;1441;48.886;8.728;2022-09-21T08:33:33;3.93;;;3.33;;
2866;SDS011;1441;48.886;8.728;2022-09-21T08:35:59;4.30;;;2.67;;
2866;SDS011;1441;48.886;8.728;2022-09-21T08:38:26;4.20;;;2.50;;
2866;SDS011;1441;48.886;8.728;2022-09-21T08:40:56;5.97;;;1.67;;
2866;SDS011;1441;48.886;8.728;2022-09-21T08:46:06;2.40;;;1.83;;
2866;SDS011;1441;48.886;8.728;2022-09-21T08:48:46;4.90;;;1.77;;
2866;SDS011;1441;48.886;8.728;2022-09-21T08:51:22;2.73;;;1.27;;
2866;SDS011;1441;48.886;8.728;2022-09-21T08:53:51;1.83;;;1.70;;
2866;SDS011;1441;48.886;8.728;2022-09-21T08:56:21;4.23;;;1.40;;
2866;SDS011;1441;48.886;8.728;2022-09-21T08:58:48;2.73;;;1.20;;
2866;SDS011;1441;48.886;8.728;2022-09-21T09:03:52;1.50;;;0.87;;
2866;SDS011;1441;48.886;8.728;2022-09-21T09:09:24;2.80;;;1.00;;
2866;SDS011;1441;48.886;8.728;2022-09-21T09:17:45;1.53;;;0.80;;
2866;SDS011;1441;48.886;8.728;2022-09-21T09:20:32;2.40;;;0.87;;
2866;SDS011;1441;48.886;8.728;2022-09-21T09:23:19;3.57;;;1.10;;
2866;SDS011;1441;48.886;8.728;2022-09-21T09:26:05;2.90;;;0.90;;
2866;SDS011;1441;48.886;8.728;2022-09-21T09:28:50;4.73;;;1.10;;
2866;SDS011;1441;48.886;8.728;2022-09-21T09:31:24;0.80;;;0.70;;
2866;SDS011;1441;48.886;8.728;2022-09-21T09:34:10;1.87;;;0.80;;
2866;SDS011;1441;48.886;8.728;2022-09-21T09:36:43;0.93;;;0.80;;
2866;SDS011;1441;48.886;8.728;2022-09-21T09:39:13;5.23;;;0.87;;
2866;SDS011;1441;48.886;8.728;2022-09-21T09:41:45;1.33;;;0.70;;
2866;SDS011;1441;48.886;8.728;2022-09-21T09:44:29;5.30;;;0.90;;
2866;SDS011;1441;48.886;8.728;2022-09-21T09:52:37;3.90;;;0.97;;
2866;SDS011;1441;48.886;8.728;2022-09-21T09:55:13;3.80;;;0.80;;
2866;SDS011;1441;48.886;8.728;2022-09-21T09:57:44;2.23;;;0.60;;
2866;SDS011;1441;48.886;8.728;2022-09-21T10:00:12;2.20;;;0.97;;
2866;SDS011;1441;48.886;8.728;2022-09-21T10:02:47;1.00;;;0.80;;
2866;SDS011;1441;48.886;8.728;2022-09-21T10:07:58;1.27;;;1.00;;
2866;SDS011;1441;48.886;8.728;2022-09-21T10:12:54;1.73;;;0.93;;
2866;SDS011;1441;48.886;8.728;2022-09-21T10:15:26;1.90;;;1.00;;
2866;SDS011;1441;48.886;8.728;2022-09-21T10:17:56;1.00;;;0.70;;
2866;SDS011;1441;48.886;8.728;2022-09-21T10:20:34;4.70;;;0.93;;
2866;SDS011;1441;48.886;8.728;2022-09-21T10:23:00;1.30;;;0.87;;
2866;SDS011;1441;48.886;8.728;2022-09-21T10:25:26;1.43;;;1.00;;
2866;SDS011;1441;48.886;8.728;2022-09-21T10:27:51;2.70;;;1.07;;
2866;SDS011;1441;48.886;8.728;2022-09-21T10:30:30;2.50;;;1.23;;
2866;SDS011;1441;48.886;8.728;2022-09-21T10:32:56;4.07;;;1.30;;
2866;SDS011;1441;48.886;8.728;2022-09-21T10:35:23;1.73;;;1.20;;
2866;SDS011;1441;48.886;8.728;2022-09-21T10:38:07;1.50;;;1.30;;
2866;SDS011;1441;48.886;8.728;2022-09-21T10:40:35;2.47;;;1.13;;
2866;SDS011;1441;48.886;8.728;2022-09-21T10:43:02;5.40;;;1.00;;
2866;SDS011;1441;48.886;8.728;2022-09-21T10:45:29;2.43;;;1.03;;
2866;SDS011;1441;48.886;8.728;2022-09-21T10:50:48;1.10;;;0.90;;
2866;SDS011;1441;48.886;8.728;2022-09-21T10:56:05;3.37;;;1.13;;
2866;SDS011;1441;48.886;8.728;2022-09-21T10:58:40;2.37;;;1.30;;
2866;SDS011;1441;48.886;8.728;2022-09-21T11:01:44;1.20;;;0.80;;
2866;SDS011;1441;48.886;8.728;2022-09-21T11:04:21;3.47;;;1.07;;
2866;SDS011;1441;48.886;8.728;2022-09-21T11:07:12;4.17;;;1.13;;
2866;SDS011;1441;48.886;8.728;2022-09-21T11:20:41;1.47;;;1.00;;
2866;SDS011;1441;48.886;8.728;2022-09-21T11:23:19;2.30;;;1.57;;
2866;SDS011;1441;48.886;8.728;2022-09-21T11:28:42;1.37;;;0.80;;
2866;SDS011;1441;48.886;8.728;2022-09-21T11:33:49;7.90;;;1.07;;
2866;SDS011;1441;48.886;8.728;2022-09-21T11:36:34;2.35;;;1.10;;
2866;SDS011;1441;48.886;8.728;2022-09-21T11:44:57;4.07;;;0.90;;
2866;SDS011;1441;48.886;8.728;2022-09-21T11:52:49;1.50;;;1.10;;
2866;SDS011;1441;48.886;8.728;2022-09-21T11:55:41;2.23;;;0.93;;
2866;SDS011;1441;48.886;8.728;2022-09-21T11:58:45;3.77;;;0.90;;
2866;SDS011;1441;48.886;8.728;2022-09-21T12:07:06;2.10;;;0.80;;
2866;SDS011;1441;48.886;8.728;2022-09-21T12:09:54;1.23;;;0.90;;
2866;SDS011;1441;48.886;8.728;2022-09-21T12:15:20;1.63;;;0.80;;
2866;SDS011;1441;48.886;8.728;2022-09-21T12:23:03;0.83;;;0.80;;
2866;SDS011;1441;48.886;8.728;2022-09-21T12:25:36;1.00;;;0.80;;
2866;SDS011;1441;48.886;8.728;2022-09-21T12:28:23;0.80;;;0.80;;
2866;SDS011;1441;48.886;8.728;2022-09-21T12:30:58;1.63;;;1.00;;
2866;SDS011;1441;48.886;8.728;2022-09-21T12:36:07;2.10;;;1.17;;
2866;SDS011;1441;48.886;8.728;2022-09-21T12:41:48;0.97;;;0.73;;
2866;SDS011;1441;48.886;8.728;2022-09-21T12:47:20;2.00;;;0.73;;
2866;SDS011;1441;48.886;8.728;2022-09-21T12:49:55;0.80;;;0.80;;
2866;SDS011;1441;48.886;8.728;2022-09-21T12:52:26;1.80;;;0.70;;
2866;SDS011;1441;48.886;8.728;2022-09-21T13:00:15;3.60;;;1.37;;
2866;SDS011;1441;48.886;8.728;2022-09-21T13:08:27;6.53;;;2.03;;
2866;SDS011;1441;48.886;8.728;2022-09-21T13:10:58;1.17;;;1.00;;
2866;SDS011;1441;48.886;8.728;2022-09-21T13:13:33;1.17;;;0.90;;
2866;SDS011;1441;48.886;8.728;2022-09-21T13:15:59;2.00;;;0.93;;
2866;SDS011;1441;48.886;8.728;2022-09-21T13:20:53;1.00;;;0.90;;
2866;SDS011;1441;48.886;8.728;2022-09-21T13:23:21;2.43;;;1.00;;
2866;SDS011;1441;48.886;8.728;2022-09-21T13:25:58;1.20;;;1.10;;
2866;SDS011;1441;48.886;8.728;2022-09-21T13:39:34;4.53;;;0.90;;
2866;SDS011;1441;48.886;8.728;2022-09-21T13:41:59;4.53;;;0.80;;
2866;SDS011;1441;48.886;8.728;2022-09-21T13:44:54;0.57;;;0.57;;
2866;SDS011;1441;48.886;8.728;2022-09-21T13:47:33;1.17;;;0.70;;
2866;SDS011;1441;48.886;8.728;2022-09-21T13:50:01;1.07;;;0.80;;
2866;SDS011;1441;48.886;8.728;2022-09-21T13:52:43;2.83;;;0.70;;
2866;SDS011;1441;48.886;8.728;2022-09-21T13:55:29;0.90;;;0.70;;
2866;SDS011;1441;48.886;8.728;2022-09-21T13:57:57;1.23;;;0.70;;
2866;SDS011;1441;48.886;8.728;2022-09-21T14:00:49;4.93;;;0.80;;
2866;SDS011;1441;48.886;8.728;2022-09-21T14:03:31;1.27;;;0.50;;
2866;SDS011;1441;48.886;8.728;2022-09-21T14:08:44;0.60;;;0.60;;
2866;SDS011;1441;48.886;8.728;2022-09-21T14:11:16;1.50;;;0.67;;
2866;SDS011;1441;48.886;8.728;2022-09-21T14:14:21;0.40;;;0.40;;
2866;SDS011;1441;48.886;8.728;2022-09-21T14:16:51;0.50;;;0.50;;
2866;SDS011;1441;48.886;8.728;2022-09-21T14:30:01;0.60;;;0.60;;
2866;SDS011;1441;48.886;8.728;2022-09-21T14:32:31;0.70;;;0.60;;
2866;SDS011;1441;48.886;8.728;2022-09-21T14:35:12;0.57;;;0.50;;
2866;SDS011;1441;48.886;8.728;2022-09-21T14:38:27;0.60;;;0.50;;
2866;SDS011;1441;48.886;8.728;2022-09-21T14:40:38;0.80;;;0.50;;
2866;SDS011;1441;48.886;8.728;2022-09-21T14:43:11;0.60;;;0.60;;
2866;SDS011;1441;48.886;8.728;2022-09-21T14:51:25;9.10;;;0.70;;
2866;SDS011;1441;48.886;8.728;2022-09-21T14:54:36;0.50;;;0.50;;
2866;SDS011;1441;48.886;8.728;2022-09-21T15:00:20;0.50;;;0.50;;
2866;SDS011;1441;48.886;8.728;2022-09-21T15:03:04;1.00;;;0.70;;
2866;SDS011;1441;48.886;8.728;2022-09-21T15:12:14;2.10;;;0.73;;
2866;SDS011;1441;48.886;8.728;2022-09-21T15:14:50;2.27;;;0.60;;
2866;SDS011;1441;48.886;8.728;2022-09-21T15:17:26;25.03;;;0.90;;
2866;SDS011;1441;48.886;8.728;2022-09-21T15:19:57;4.70;;;0.70;;
2866;SDS011;1441;48.886;8.728;2022-09-21T15:22:24;1.23;;;0.60;;
2866;SDS011;1441;48.886;8.728;2022-09-21T15:24:55;1.77;;;0.60;;
2866;SDS011;1441;48.886;8.728;2022-09-21T15:27:27;1.80;;;0.90;;
2866;SDS011;1441;48.886;8.728;2022-09-21T15:29:57;1.17;;;0.50;;
2866;SDS011;1441;48.886;8.728;2022-09-21T15:32:32;2.60;;;1.07;;
2866;SDS011;1441;48.886;8.728;2022-09-21T15:35:15;0.90;;;0.50;;
2866;SDS011;1441;48.886;8.728;2022-09-21T15:37:44;3.70;;;0.70;;
2866;SDS011;1441;48.886;8.728;2022-09-21T15:40:14;0.80;;;0.80;;
2866;SDS011;1441;48.886;8.728;2022-09-21T15:47:58;0.70;;;0.70;;
2866;SDS011;1441;48.886;8.728;2022-09-21T15:50:25;0.70;;;0.60;;
2866;SDS011;1441;48.886;8.728;2022-09-21T15:52:54;0.60;;;0.60;;
2866;SDS011;1441;48.886;8.728;2022-09-21T15:55:24;0.83;;;0.60;;
2866;SDS011;1441;48.886;8.728;2022-09-21T15:57:50;0.80;;;0.60;;
2866;SDS011;1441;48.886;8.728;2022-09-21T16:00:22;1.10;;;0.87;;
2866;SDS011;1441;48.886;8.728;2022-09-21T16:02:54;0.60;;;0.60;;
2866;SDS011;1441;48.886;8.728;2022-09-21T16:05:51;0.73;;;0.60;;
2866;SDS011;1441;48.886;8.728;2022-09-21T16:11:09;0.70;;;0.70;;
2866;SDS011;1441;48.886;8.728;2022-09-21T16:13:35;0.80;;;0.70;;
2866;SDS011;1441;48.886;8.728;2022-09-21T16:16:19;1.50;;;0.60;;
2866;SDS011;1441;48.886;8.728;2022-09-21T16:18:45;1.60;;;0.57;;
2866;SDS011;1441;48.886;8.728;2022-09-21T16:21:23;1.43;;;0.70;;
2866;SDS011;1441;48.886;8.728;2022-09-21T16:24:06;0.70;;;0.60;;
2866;SDS011;1441;48.886;8.728;2022-09-21T16:26:36;0.40;;;0.40;;
2866;SDS011;1441;48.886;8.728;2022-09-21T16:29:16;0.83;;;0.60;;
2866;SDS011;1441;48.886;8.728;2022-09-21T16:31:44;1.73;;;0.50;;
2866;SDS011;1441;48.886;8.728;2022-09-21T16:36:48;0.80;;;0.60;;
2866;SDS011;1441;48.886;8.728;2022-09-21T16:39:15;3.10;;;0.80;;
2866;SDS011;1441;48.886;8.728;2022-09-21T16:41:44;2.60;;;0.80;;
2866;SDS011;1441;48.886;8.728;2022-09-21T16:44:22;1.83;;;0.70;;
2866;SDS011;1441;48.886;8.728;2022-09-21T16:46:50;1.53;;;0.70;;
2866;SDS011;1441;48.886;8.728;2022-09-21T16:49:18;2.60;;;1.20;;
2866;SDS011;1441;48.886;8.728;2022-09-21T16:51:44;0.60;;;0.60;;
2866;SDS011;1441;48.886;8.728;2022-09-21T16:54:11;2.57;;;0.50;;
2866;SDS011;1441;48.886;8.728;2022-09-21T16:56:37;0.60;;;0.60;;
2866;SDS011;1441;48.886;8.728;2022-09-21T16:59:16;0.93;;;0.50;;
2866;SDS011;1441;48.886;8.728;2022-09-21T17:01:50;1.43;;;0.87;;
2866;SDS011;1441;48.886;8.728;2022-09-21T17:04:17;0.87;;;0.70;;
2866;SDS011;1441;48.886;8.728;2022-09-21T17:06:46;0.50;;;0.50;;
2866;SDS011;1441;48.886;8.728;2022-09-21T17:09:25;1.17;;;0.80;;
2866;SDS011;1441;48.886;8.728;2022-09-21T17:11:51;0.77;;;0.77;;
2866;SDS011;1441;48.886;8.728;2022-09-21T17:14:18;1.00;;;0.70;;
2866;SDS011;1441;48.886;8.728;2022-09-21T17:16:45;2.10;;;0.70;;
2866;SDS011;1441;48.886;8.728;2022-09-21T17:19:13;0.80;;;0.80;;
2866;SDS011;1441;48.886;8.728;2022-09-21T17:21:39;0.70;;;0.70;;
2866;SDS011;1441;48.886;8.728;2022-09-21T17:24:05;1.20;;;0.73;;
2866;SDS011;1441;48.886;8.728;2022-09-21T17:26:31;0.70;;;0.70;;
2866;SDS011;1441;48.886;8.728;2022-09-21T17:28:58;0.77;;;0.77;;
2866;SDS011;1441;48.886;8.728;2022-09-21T17:31:24;2.20;;;1.10;;
2866;SDS011;1441;48.886;8.728;2022-09-21T17:33:49;2.50;;;0.93;;
2866;SDS011;1441;48.886;8.728;2022-09-21T17:36:16;4.53;;;1.30;;
2866;SDS011;1441;48.886;8.728;2022-09-21T17:38:42;4.30;;;1.67;;
2866;SDS011;1441;48.886;8.728;2022-09-21T17:41:15;6.37;;;1.00;;
2866;SDS011;1441;48.886;8.728;2022-09-21T17:43:49;2.13;;;0.97;;
2866;SDS011;1441;48.886;8.728;2022-09-21T17:46:21;13.63;;;1.23;;
2866;SDS011;1441;48.886;8.728;2022-09-21T17:48:54;2.00;;;1.00;;
2866;SDS011;1441;48.886;8.728;2022-09-21T17:51:19;2.53;;;0.90;;
2866;SDS011;1441;48.886;8.728;2022-09-21T17:54:04;1.70;;;1.00;;
2866;SDS011;1441;48.886;8.728;2022-09-21T17:56:41;1.20;;;1.10;;
2866;SDS011;1441;48.886;8.728;2022-09-21T17:59:17;4.00;;;0.87;;
2866;SDS011;1441;48.886;8.728;2022-09-21T18:01:52;1.33;;;0.90;;
2866;SDS011;1441;48.886;8.728;2022-09-21T18:04:23;3.10;;;1.00;;
2866;SDS011;1441;48.886;8.728;2022-09-21T18:06:50;1.83;;;1.00;;
2866;SDS011;1441;48.886;8.728;2022-09-21T18:09:17;0.93;;;0.93;;
2866;SDS011;1441;48.886;8.728;2022-09-21T18:14:50;1.10;;;1.00;;
2866;SDS011;1441;48.886;8.728;2022-09-21T18:20:19;1.90;;;1.03;;
2866;SDS011;1441;48.886;8.728;2022-09-21T18:23:09;1.43;;;1.00;;
2866;SDS011;1441;48.886;8.728;2022-09-21T18:25:41;0.90;;;0.90;;
2866;SDS011;1441;48.886;8.728;2022-09-21T18:28:14;1.20;;;1.03;;
2866;SDS011;1441;48.886;8.728;2022-09-21T18:30:42;1.83;;;1.20;;
2866;SDS011;1441;48.886;8.728;2022-09-21T18:33:19;6.10;;;1.10;;
2866;SDS011;1441;48.886;8.728;2022-09-21T18:35:56;3.80;;;0.87;;
2866;SDS011;1441;48.886;8.728;2022-09-21T18:38:39;2.20;;;0.77;;
2866;SDS011;1441;48.886;8.728;2022-09-21T18:49:53;0.93;;;0.77;;